createdAt,value
2023-03-26T00:02:18.339Z,101072.22
2023-03-26T00:07:46.751Z,101063.47
2023-03-26T00:12:59.290Z,101064.84
2023-03-26T00:18:29.105Z,101061.03
2023-03-26T00:23:49.662Z,101042.44
2023-03-26T00:29:10.224Z,101056.75
2023-03-26T00:34:30.548Z,101051.47
2023-03-26T00:39:50.018Z,101043.13
2023-03-26T00:45:07.126Z,101043.13
2023-03-26T00:50:25.307Z,101042.13
2023-03-26T00:55:43.453Z,101044.28
2023-03-26T01:01:06.141Z,101034.47
2023-03-26T01:06:39.917Z,101032.50
2023-03-26T01:12:10.168Z,101029.50
2023-03-26T01:17:41.756Z,101040.03
2023-03-26T01:23:09.068Z,101036.81
2023-03-26T01:39:40.623Z,101041.78
2023-03-26T01:45:04.700Z,101037.19
2023-03-26T01:50:25.222Z,101043.19
2023-03-26T02:01:17.902Z,101043.94
2023-03-26T02:06:44.748Z,101045.09
2023-03-26T02:12:15.056Z,101046.78
2023-03-26T02:17:35.798Z,101042.91
2023-03-26T02:22:56.273Z,101049.06
2023-03-26T02:28:16.900Z,101032.66
2023-03-26T02:40:34.978Z,101040.88
2023-03-26T02:46:01.870Z,101038.13
2023-03-26T02:51:33.358Z,101040.66
2023-03-26T02:57:03.408Z,101032.72
2023-03-26T03:02:34.518Z,101031.53
2023-03-26T03:08:04.237Z,101034.59
2023-03-26T03:13:36.922Z,101027.78
2023-03-26T03:19:04.408Z,101024.19
2023-03-26T03:24:26.153Z,101012.53
2023-03-26T03:35:20.151Z,101010.94
2023-03-26T03:40:48.949Z,100996.19
2023-03-26T03:46:09.481Z,100989.47
2023-03-26T03:51:29.057Z,100994.13
2023-03-26T03:56:54.906Z,100994.97
2023-03-26T04:02:31.107Z,100996.72
2023-03-26T04:07:48.048Z,100997.22
2023-03-26T04:13:24.585Z,100989.69
2023-03-26T04:18:55.181Z,100996.09
2023-03-26T04:24:13.334Z,100989.66
2023-03-26T04:29:50.252Z,100995.41
2023-03-26T04:35:19.817Z,100995.94
2023-03-26T04:40:49.507Z,100988.47
2023-03-26T04:46:18.289Z,100986.75
2023-03-26T04:51:51.499Z,100988.34
2023-03-26T04:57:29.929Z,100982.97
2023-03-26T05:02:58.304Z,100982.88
2023-03-26T05:08:19.967Z,100975.88
2023-03-26T05:13:49.841Z,100972.38
2023-03-26T05:19:07.887Z,100971.03
2023-03-26T05:24:27.588Z,100977.97
2023-03-26T05:29:48.082Z,100977.72
2023-03-26T05:40:38.313Z,100976.44
2023-03-26T05:46:00.418Z,100967.59
2023-03-26T05:51:21.032Z,100963.56
2023-03-26T05:56:52.837Z,100962.38
2023-03-26T06:02:21.912Z,100954.44
2023-03-26T06:07:50.062Z,100962.91
2023-03-26T06:13:13.651Z,100951.88
2023-03-26T06:18:31.937Z,100956.16
2023-03-26T06:24:03.658Z,100955.88
2023-03-26T06:29:37.337Z,100948.03
2023-03-26T06:35:16.437Z,100928.91
2023-03-26T06:40:37.597Z,100926.13
2023-03-26T06:46:14.388Z,100921.34
2023-03-26T06:51:43.684Z,100901.75
2023-03-26T06:57:14.469Z,100889.16
2023-03-26T07:02:46.021Z,100889.69
2023-03-26T07:08:18.706Z,100881.31
2023-03-26T07:13:51.098Z,100881.09
2023-03-26T07:19:20.786Z,100863.44
2023-03-26T07:24:38.856Z,100855.97
2023-03-26T07:51:51.977Z,100797.28
2023-03-26T08:19:29.456Z,100754.38
2023-03-26T08:25:29.287Z,100727.41
2023-03-26T08:30:50.124Z,100731.19
2023-03-26T08:36:06.322Z,100715.22
2023-03-26T08:41:42.572Z,100717.53
2023-03-26T08:58:46.797Z,100700.59
2023-03-26T09:26:44.425Z,100682.16
2023-03-26T09:38:11.259Z,100663.84
2023-03-26T09:44:07.814Z,100656.53
2023-03-26T10:01:28.200Z,100639.56
2023-03-26T10:12:40.625Z,100618.25
2023-03-26T10:55:42.644Z,100585.81
2023-03-26T11:01:17.274Z,100569.88
2023-03-26T11:23:19.020Z,100557.25
2023-03-26T11:34:16.895Z,100540.41
2023-03-26T11:39:42.780Z,100536.00
2023-03-26T11:45:08.159Z,100524.31
2023-03-26T12:01:35.571Z,100501.16
2023-03-26T12:07:12.553Z,100496.06
2023-03-26T12:12:36.415Z,100483.72
2023-03-26T12:17:58.464Z,100478.94
2023-03-26T12:23:57.820Z,100472.91
2023-03-26T12:29:20.579Z,100462.38
2023-03-26T12:34:41.155Z,100460.66
2023-03-26T12:40:18.204Z,100461.59
2023-03-26T12:46:03.858Z,100456.28
2023-03-26T13:14:06.255Z,100431.09
2023-03-26T14:02:47.360Z,100369.13
2023-03-26T14:08:33.002Z,100363.69
2023-03-26T14:14:10.542Z,100356.59
2023-03-26T14:51:42.206Z,100313.41
2023-03-26T15:08:04.200Z,100272.56
2023-03-26T15:19:47.147Z,100250.31
2023-03-26T15:41:42.915Z,100199.38
2023-03-26T15:47:04.786Z,100200.22
2023-03-26T15:58:39.884Z,100189.06
2023-03-26T16:04:14.079Z,100184.34
2023-03-26T16:15:21.437Z,100190.00
2023-03-26T16:20:52.832Z,100186.03
2023-03-26T17:35:08.847Z,100177.50
2023-03-26T17:41:01.464Z,100175.13
2023-03-26T17:52:09.516Z,100183.09
2023-03-26T18:03:25.126Z,100167.53
2023-03-26T18:08:57.365Z,100168.72
2023-03-26T18:14:56.288Z,100152.00
2023-03-26T18:20:14.791Z,100141.59
2023-03-26T18:25:37.334Z,100128.44
2023-03-26T18:30:57.626Z,100122.03
2023-03-26T18:36:17.945Z,100119.25
2023-03-26T18:41:51.396Z,100107.28
2023-03-26T18:47:12.186Z,100123.25
2023-03-26T18:52:32.790Z,100121.63
2023-03-26T18:57:53.352Z,100131.22
2023-03-26T19:03:14.338Z,100124.81
2023-03-26T19:08:34.744Z,100121.16
2023-03-26T19:14:06.959Z,100113.59
2023-03-26T19:19:29.319Z,100102.41
2023-03-26T19:24:47.375Z,100099.16
2023-03-26T19:30:08.207Z,100095.97
2023-03-26T19:35:32.400Z,100095.97
2023-03-26T19:40:53.603Z,100086.44
2023-03-26T19:46:21.307Z,100065.72
2023-03-26T19:57:05.763Z,100063.31
2023-03-26T20:07:48.552Z,100054.53
2023-03-26T20:13:07.412Z,100047.31
2023-03-26T20:18:27.957Z,100032.19
2023-03-26T20:23:46.344Z,100032.94
2023-03-26T20:29:07.447Z,100031.31
2023-03-26T20:34:33.032Z,100017.34
2023-03-26T20:39:53.054Z,100025.25
2023-03-26T20:50:50.244Z,100012.72
2023-03-26T20:56:05.577Z,99996.28
2023-03-26T21:01:26.347Z,100008.19
2023-03-26T21:06:46.859Z,99998.94
2023-03-26T21:12:10.712Z,99999.63
2023-03-26T21:17:29.477Z,99982.13
2023-03-26T21:28:42.553Z,99980.72
2023-03-26T21:34:09.411Z,99975.84
2023-03-26T21:39:27.879Z,99978.94
2023-03-26T21:44:56.093Z,99952.28
2023-03-26T21:50:14.222Z,99956.22
2023-03-26T21:55:35.308Z,99960.88
2023-03-26T22:01:34.475Z,99966.47
2023-03-26T22:12:36.308Z,99951.28
2023-03-26T22:17:58.928Z,99944.97
2023-03-26T22:23:17.791Z,99949.00
2023-03-26T22:28:38.364Z,99946.97
2023-03-26T22:33:58.885Z,99959.94
2023-03-26T22:39:19.456Z,99967.25
2023-03-26T22:44:36.394Z,99965.84
2023-03-26T22:50:04.238Z,99983.69
2023-03-26T22:55:28.325Z,99976.13
2023-03-26T23:00:49.584Z,99989.34
2023-03-26T23:06:09.385Z,99958.84
2023-03-26T23:11:29.989Z,99964.38
2023-03-26T23:16:48.446Z,99992.75
2023-03-26T23:22:08.947Z,99990.28
2023-03-26T23:27:29.036Z,99986.25
2023-03-26T23:32:46.207Z,99983.06
2023-03-26T23:38:16.364Z,100003.19
2023-03-26T23:43:36.473Z,99989.72
2023-03-26T23:49:05.952Z,99995.34
2023-03-26T23:54:26.497Z,100012.75
2023-03-26T23:59:43.371Z,100006.25
